Weather History for Gustavus, AK

Change the Weather History Date:

Saturday, January 14, 2012

  Actual Average Record
Temperature  
Mean Temperature 22 °F -  
Max Temperature 26 °F 33 °F 44 °F (1992)
Min Temperature 17 °F 25 °F -12 °F (1950)
Degree Days  
Heating Degree Days 44    
Moisture  
Dew Point 6 °F    
Average Humidity 53    
Maximum Humidity 80    
Minimum Humidity 39    
Precipitation  
Precipitation 0.00 in - - ()
Sea Level Pressure  
Sea Level Pressure 30.16 in    
Wind  
Wind Speed 14 mph (NNW)    
Max Wind Speed 21 mph    
Max Gust Speed 28 mph    
Visibility 10 miles    
Events      
Averages and records for this station are not official NWS values.
T = Trace of Precipitation, MM = Missing Value Source: NWS Daily Summary

Daily Weather History Graph

Daily Weather History Graph

Search for Another Location

Airport:

Trip Planner

Search our weather history database for the weather conditions in past years. The results will help you decide how hot, cold, wet, or windy it might be!

Date:

Astronomy

Jan. 14, 2012 Rise Set
Actual Time 8:40 AM AKST 3:43 PM AKST
Civil Twilight 7:51 AM AKST 4:32 PM AKST
Nautical Twilight 6:59 AM AKST 5:24 PM AKST
Astronomical Twilight 6:12 AM AKST 6:12 PM AKST
Moon No Moon Rise 9:53 AM AKST (1/14)
Length of Visible Light 8h 41m
Length of Day
7h 02m
Waning Gibbous, 67% of the Moon is Illuminated
Jan 14
Waning Gibbous
Jan 16
Last Quarter
Jan 22
New
Jan 30
First Quarter
Feb 7
Full

Hourly Weather History & Observations

Time (AKST) Temp. Windchill Dew Point Humidity Pressure Visibility Wind Dir Wind Speed Gust Speed Precip Events Conditions
12:16 AM 26.6 °F 17.5 °F 21.2 °F 80% 29.91 in 10.0 mi NNW 9.2 mph - N/A   Mostly Cloudy
12:36 AM 26.6 °F 16.8 °F 19.4 °F 74% 29.92 in 10.0 mi NW 10.4 mph - N/A   Scattered Clouds
12:56 AM 24.8 °F 13.4 °F 17.6 °F 74% 29.93 in 10.0 mi NNW 12.7 mph - N/A   Partly Cloudy
1:16 AM 24.8 °F 13.4 °F 17.6 °F 74% 29.94 in 10.0 mi NW 12.7 mph - N/A   Scattered Clouds
1:36 AM 26.6 °F 15.2 °F 17.6 °F 69% 29.94 in 10.0 mi NW 13.8 mph - N/A   Partly Cloudy
1:56 AM 24.8 °F 12.9 °F 15.8 °F 69% 29.96 in 10.0 mi NNW 13.8 mph - N/A   Partly Cloudy
2:16 AM 24.8 °F 12.4 °F 15.8 °F 69% 29.97 in 10.0 mi NNW 15.0 mph - N/A   Partly Cloudy
2:36 AM 24.8 °F 13.4 °F 15.8 °F 69% 29.98 in 10.0 mi North 12.7 mph - N/A   Clear
2:56 AM 23.0 °F 11.7 °F 15.8 °F 74% 29.99 in 10.0 mi NNW 11.5 mph - N/A   Clear
3:16 AM 23.0 °F 10.6 °F 12.2 °F 63% 29.99 in 10.0 mi NNW 13.8 mph 24.2 mph N/A   Clear
3:36 AM 23.0 °F 10.6 °F 10.4 °F 59% 30.00 in 10.0 mi NNW 13.8 mph 20.7 mph N/A   Clear
3:56 AM 21.2 °F 7.3 °F 10.4 °F 63% 30.01 in 10.0 mi NNW 16.1 mph 23.0 mph N/A   Clear
4:16 AM 23.0 °F 11.7 °F 8.6 °F 54% 30.02 in 10.0 mi NNW 11.5 mph 21.9 mph N/A   Clear
4:36 AM 21.2 °F 10.9 °F 10.4 °F 63% 30.03 in 10.0 mi NW 9.2 mph - N/A   Clear
4:56 AM 21.2 °F 11.7 °F 10.4 °F 63% 30.04 in 10.0 mi NNW 8.1 mph - N/A   Clear
5:16 AM 21.2 °F 10.1 °F 10.4 °F 63% 30.05 in 10.0 mi NNW 10.4 mph 21.9 mph N/A   Clear
5:36 AM 19.4 °F 7.9 °F 10.4 °F 68% 30.07 in 10.0 mi NNW 10.4 mph - N/A   Clear
5:56 AM 21.2 °F 8.3 °F 6.8 °F 54% 30.08 in 10.0 mi North 13.8 mph 23.0 mph N/A   Clear
6:16 AM 21.2 °F 8.3 °F 8.6 °F 58% 30.09 in 10.0 mi NNW 13.8 mph 19.6 mph N/A   Clear
6:36 AM 19.4 °F 5.5 °F 8.6 °F 63% 30.09 in 10.0 mi NNW 15.0 mph - N/A   Clear
6:56 AM 19.4 °F 5.0 °F 8.6 °F 63% 30.10 in 10.0 mi NNW 16.1 mph 24.2 mph N/A   Clear
7:16 AM 19.4 °F 4.5 °F 6.8 °F 58% 30.10 in 10.0 mi NNW 17.3 mph 26.5 mph N/A   Clear
7:36 AM 19.4 °F 6.0 °F 5.0 °F 54% 30.11 in 10.0 mi North 13.8 mph - N/A   Clear
7:56 AM 19.4 °F 4.5 °F 5.0 °F 54% 30.12 in 10.0 mi NNW 17.3 mph 23.0 mph N/A   Clear
8:16 AM 19.4 °F 5.5 °F 3.2 °F 49% 30.14 in 10.0 mi North 15.0 mph 25.3 mph N/A   Scattered Clouds
8:36 AM 19.4 °F 5.0 °F 8.6 °F 63% 30.15 in 10.0 mi NNW 16.1 mph 20.7 mph N/A   Partly Cloudy
8:56 AM 19.4 °F 5.0 °F 5.0 °F 54% 30.16 in 10.0 mi North 16.1 mph 25.3 mph N/A   Clear
9:16 AM 19.4 °F 5.0 °F 3.2 °F 49% 30.17 in 10.0 mi NNW 16.1 mph 19.6 mph N/A   Scattered Clouds
9:36 AM 19.4 °F 3.6 °F 1.4 °F 46% 30.17 in 10.0 mi NNW 19.6 mph - N/A   Overcast
9:56 AM 19.4 °F 3.6 °F 3.2 °F 49% 30.18 in 10.0 mi NNW 19.6 mph 24.2 mph N/A   Scattered Clouds
10:16 AM 19.4 °F 5.0 °F 1.4 °F 46% 30.19 in 10.0 mi NNW 16.1 mph 24.2 mph N/A   Scattered Clouds
10:36 AM 19.4 °F 3.2 °F 1.4 °F 46% 30.20 in 10.0 mi North 20.7 mph 25.3 mph N/A   Overcast
10:56 AM 19.4 °F 5.0 °F 1.4 °F 46% 30.21 in 10.0 mi NNW 16.1 mph 21.9 mph N/A   Mostly Cloudy
11:16 AM 19.4 °F 4.1 °F 3.2 °F 49% 30.21 in 10.0 mi North 18.4 mph 26.5 mph N/A   Scattered Clouds
11:36 AM 21.2 °F 7.3 °F 1.4 °F 42% 30.22 in 10.0 mi NNW 16.1 mph 24.2 mph N/A   Mostly Cloudy
11:56 AM 21.2 °F 8.9 °F 6.8 °F 54% 30.22 in 10.0 mi NNW 12.7 mph 23.0 mph N/A   Overcast
12:16 PM 21.2 °F 6.8 °F 6.8 °F 54% 30.23 in 10.0 mi North 17.3 mph 24.2 mph N/A   Scattered Clouds
12:36 PM 21.2 °F 8.3 °F 3.2 °F 46% 30.24 in 10.0 mi NNW 13.8 mph 20.7 mph N/A   Scattered Clouds
12:56 PM 21.2 °F 7.3 °F 1.4 °F 42% 30.26 in 10.0 mi North 16.1 mph 23.0 mph N/A   Scattered Clouds
1:16 PM 21.2 °F 6.4 °F 1.4 °F 42% 30.26 in 10.0 mi North 18.4 mph 25.3 mph N/A   Mostly Cloudy
1:36 PM 21.2 °F 6.8 °F -0.4 °F 39% 30.27 in 10.0 mi North 17.3 mph 26.5 mph N/A   Mostly Cloudy
1:56 PM 21.2 °F 6.4 °F -0.4 °F 39% 30.29 in 10.0 mi North 18.4 mph 24.2 mph N/A   Scattered Clouds
2:16 PM 19.4 °F 5.0 °F -0.4 °F 42% 30.29 in 10.0 mi NNE 16.1 mph 25.3 mph N/A   Clear
2:36 PM 19.4 °F 3.6 °F -0.4 °F 42% 30.30 in 10.0 mi North 19.6 mph 26.5 mph N/A   Clear
2:56 PM 19.4 °F 6.6 °F -0.4 °F 42% 30.31 in 10.0 mi North 12.7 mph 25.3 mph N/A   Clear
3:16 PM 19.4 °F 4.1 °F -2.2 °F 39% 30.32 in 10.0 mi North 18.4 mph 25.3 mph N/A   Clear
3:36 PM 19.4 °F 5.5 °F -2.2 °F 39% 30.33 in 10.0 mi North 15.0 mph 24.2 mph N/A   Clear
3:56 PM 19.4 °F 6.0 °F -2.2 °F 39% 30.34 in 10.0 mi North 13.8 mph 26.5 mph N/A   Clear
4:16 PM 19.4 °F 5.0 °F -2.2 °F 39% 30.35 in 10.0 mi NNE 16.1 mph 21.9 mph N/A   Clear
4:36 PM 19.4 °F 6.0 °F -2.2 °F 39% 30.36 in 10.0 mi North 13.8 mph 27.6 mph N/A   Clear
4:56 PM 19.4 °F 6.0 °F -2.2 °F 39% 30.37 in 10.0 mi North 13.8 mph 24.2 mph N/A   Clear
5:16 PM 19.4 °F 4.1 °F -2.2 °F 39% 30.37 in 10.0 mi North 18.4 mph 27.6 mph N/A   Clear
5:36 PM 19.4 °F 7.9 °F -2.2 °F 39% 30.39 in 10.0 mi North 10.4 mph 25.3 mph N/A   Clear
5:56 PM 17.6 °F 5.0 °F -0.4 °F 45% 30.39 in 10.0 mi North 11.5 mph - N/A   Clear
6:16 PM 19.4 °F 6.6 °F -0.4 °F 42% 30.40 in 10.0 mi North 12.7 mph 18.4 mph N/A   Clear
6:36 PM 19.4 °F 4.5 °F -0.4 °F 42% 30.41 in 10.0 mi North 17.3 mph 26.5 mph N/A   Clear
6:56 PM 19.4 °F 9.5 °F -0.4 °F 42% 30.42 in 10.0 mi NNW 8.1 mph - N/A   Clear
7:16 PM 19.4 °F 7.2 °F -2.2 °F 39% 30.43 in 10.0 mi North 11.5 mph 20.7 mph N/A   Clear
7:36 PM 17.6 °F 4.3 °F -0.4 °F 45% 30.43 in 10.0 mi NNW 12.7 mph 17.3 mph N/A   Clear
7:56 PM 19.4 °F 6.0 °F -2.2 °F 39% 30.44 in 10.0 mi North 13.8 mph 19.6 mph N/A   Clear
8:16 PM 19.4 °F 3.6 °F -2.2 °F 39% 30.45 in 10.0 mi North 19.6 mph 32.2 mph N/A   Clear
8:36 PM 19.4 °F 4.1 °F -2.2 °F 39% 30.45 in 10.0 mi North 18.4 mph 32.2 mph N/A   Clear
8:56 PM 19.4 °F 5.0 °F -2.2 °F 39% 30.46 in 10.0 mi North 16.1 mph 32.2 mph N/A   Clear
9:16 PM 19.4 °F 6.0 °F -2.2 °F 39% 30.47 in 10.0 mi North 13.8 mph 21.9 mph N/A   Clear
9:36 PM 19.4 °F 4.5 °F -2.2 °F 39% 30.47 in 10.0 mi North 17.3 mph 24.2 mph N/A   Clear
9:56 PM 19.4 °F 7.2 °F -2.2 °F 39% 30.48 in 10.0 mi North 11.5 mph 21.9 mph N/A   Clear
10:16 PM 17.6 °F 4.3 °F -0.4 °F 45% 30.48 in 10.0 mi North 12.7 mph 19.6 mph N/A   Clear
10:36 PM 19.4 °F 5.5 °F -0.4 °F 42% 30.49 in 10.0 mi North 15.0 mph 29.9 mph N/A   Clear
10:56 PM 19.4 °F 7.2 °F -0.4 °F 42% 30.49 in 10.0 mi North 11.5 mph - N/A   Clear
11:16 PM 19.4 °F 7.9 °F -2.2 °F 39% 30.49 in 10.0 mi North 10.4 mph - N/A   Clear
11:36 PM 19.4 °F 8.6 °F -2.2 °F 39% 30.50 in 10.0 mi North 9.2 mph 20.7 mph N/A   Clear
11:56 PM 19.4 °F 6.0 °F -2.2 °F 39% 30.51 in 10.0 mi NNE 13.8 mph 17.3 mph N/A   Clear